createdAt,value
2023-04-17T03:59:11.211Z,20.83
2023-04-17T04:00:11.389Z,20.81
2023-04-17T04:01:10.673Z,20.86
2023-04-17T04:02:10.717Z,20.86
2023-04-17T04:03:10.882Z,20.81
2023-04-17T04:04:10.885Z,20.78
2023-04-17T04:05:10.651Z,20.81
2023-04-17T04:06:10.615Z,20.82
2023-04-17T04:07:10.593Z,20.93
2023-04-17T04:08:10.582Z,20.90
2023-04-17T04:09:10.870Z,20.88
2023-04-17T04:10:10.577Z,20.90
2023-04-17T04:11:10.552Z,20.91
2023-04-17T04:12:10.561Z,20.93
2023-04-17T04:13:10.566Z,21.01
2023-04-17T04:14:10.545Z,20.90
2023-04-17T04:15:10.576Z,20.96
2023-04-17T04:16:10.600Z,20.96
2023-04-17T04:17:10.567Z,20.98
2023-04-17T04:18:10.558Z,20.97
2023-04-17T04:19:10.786Z,21.01
2023-04-17T04:20:10.550Z,20.88
2023-04-17T04:21:10.520Z,21.04
2023-04-17T04:22:10.525Z,21.01
2023-04-17T04:23:10.504Z,21.01
2023-04-17T04:24:10.566Z,21.04
2023-04-17T04:25:10.506Z,21.03
2023-04-17T04:26:10.507Z,21.01
2023-04-17T04:27:10.568Z,21.08
2023-04-17T04:28:10.642Z,21.09
2023-04-17T04:29:10.683Z,21.03
2023-04-17T04:30:10.500Z,21.06
2023-04-17T04:31:10.524Z,21.12
2023-04-17T04:32:10.541Z,21.13
2023-04-17T04:33:10.466Z,21.16
2023-04-17T04:34:10.451Z,21.18
2023-04-17T04:35:10.489Z,21.19
2023-04-17T04:36:10.473Z,21.19
2023-04-17T04:37:10.473Z,21.15
2023-04-17T04:38:11.660Z,21.27
2023-04-17T04:39:10.693Z,21.19
2023-04-17T04:40:10.514Z,21.22
2023-04-17T04:41:10.541Z,21.30
2023-04-17T04:42:10.488Z,21.23
2023-04-17T04:43:10.428Z,21.21
2023-04-17T04:44:10.425Z,21.23
2023-04-17T04:45:10.459Z,21.28
2023-04-17T04:46:10.468Z,21.38
2023-04-17T04:47:10.443Z,21.27
2023-04-17T04:48:10.403Z,21.33
2023-04-17T04:49:10.657Z,21.33
2023-04-17T04:50:10.414Z,21.34
2023-04-17T04:51:10.406Z,21.34
2023-04-17T04:52:10.383Z,21.36
2023-04-17T04:53:10.378Z,21.45
2023-04-17T04:54:10.381Z,21.37
2023-04-17T04:55:10.388Z,21.33
2023-04-17T04:56:10.442Z,21.40
2023-04-17T04:57:10.383Z,21.43
2023-04-17T04:58:10.371Z,21.40
2023-04-17T04:59:10.623Z,21.40
2023-04-17T05:00:10.364Z,21.38
2023-04-17T05:01:10.521Z,21.43
2023-04-17T05:02:10.419Z,21.37
2023-04-17T05:03:10.550Z,21.52
2023-04-17T05:04:10.605Z,21.49
2023-04-17T05:05:10.361Z,21.49
2023-04-17T05:06:10.369Z,21.49
2023-04-17T05:07:10.372Z,21.49
2023-04-17T05:08:10.337Z,21.52
2023-04-17T05:09:10.606Z,21.48
2023-04-17T05:10:10.325Z,21.49
2023-04-17T05:11:10.336Z,21.45
2023-04-17T05:12:10.331Z,21.45
2023-04-17T05:13:10.307Z,21.55
2023-04-17T05:14:10.316Z,21.53
2023-04-17T05:15:10.308Z,21.53
2023-04-17T05:16:10.373Z,21.62
2023-04-17T05:17:10.323Z,21.66
2023-04-17T05:18:10.333Z,21.49
2023-04-17T05:19:10.580Z,21.59
2023-04-17T05:20:10.283Z,21.59
2023-04-17T05:21:10.314Z,21.55
2023-04-17T05:22:10.276Z,21.59
2023-04-17T05:23:10.291Z,21.61
2023-04-17T05:24:10.328Z,21.66
2023-04-17T05:25:10.278Z,21.67
2023-04-17T05:26:10.479Z,21.66
2023-04-17T05:27:10.286Z,21.64
2023-04-17T05:28:10.300Z,21.64
2023-04-17T05:29:10.353Z,21.66
2023-04-17T05:30:10.249Z,21.67
2023-04-17T05:31:10.518Z,21.70
2023-04-17T05:32:10.364Z,21.80
2023-04-17T05:33:10.285Z,21.68
2023-04-17T05:34:10.241Z,21.74
2023-04-17T05:35:10.238Z,21.74
2023-04-17T05:36:10.521Z,21.71
2023-04-17T05:37:10.343Z,21.74
2023-04-17T05:38:10.253Z,21.80
2023-04-17T05:39:10.573Z,21.78
2023-04-17T05:40:10.223Z,21.82
2023-04-17T05:41:10.234Z,21.80
2023-04-17T05:42:10.240Z,21.74
2023-04-17T05:43:10.203Z,21.77
2023-04-17T05:44:10.240Z,21.80
2023-04-17T05:45:10.290Z,21.86
2023-04-17T05:46:10.258Z,21.82
2023-04-17T05:47:10.307Z,21.86
2023-04-17T05:48:10.208Z,21.89
2023-04-17T05:49:10.369Z,21.86
2023-04-17T05:50:10.196Z,21.92
2023-04-17T05:51:10.206Z,21.90
2023-04-17T05:52:10.262Z,21.90
2023-04-17T05:53:10.168Z,21.94
2023-04-17T05:54:10.178Z,21.92
2023-04-17T05:55:10.164Z,21.94
2023-04-17T05:56:10.199Z,21.86
2023-04-17T05:57:10.372Z,21.92
2023-04-17T05:58:23.079Z,21.96
2023-04-17T05:59:13.049Z,21.94
2023-04-17T06:00:10.219Z,22.00
2023-04-17T06:01:10.144Z,22.00
2023-04-17T06:02:10.271Z,21.99
2023-04-17T06:03:10.332Z,22.00
2023-04-17T06:04:10.400Z,22.02
2023-04-17T06:05:10.356Z,22.04
2023-04-17T06:06:10.140Z,22.07
2023-04-17T06:07:11.032Z,22.05
2023-04-17T06:08:10.135Z,22.08
2023-04-17T06:09:10.529Z,22.09
2023-04-17T06:10:10.249Z,22.11
2023-04-17T06:11:10.140Z,22.11
2023-04-17T06:12:10.104Z,22.14
2023-04-17T06:13:10.271Z,22.07
2023-04-17T06:14:10.169Z,22.08
2023-04-17T06:15:10.110Z,22.15
2023-04-17T06:16:11.014Z,22.14
2023-04-17T06:17:10.215Z,22.02
2023-04-17T06:18:11.031Z,22.16
2023-04-17T06:19:10.296Z,22.18
2023-04-17T06:20:10.111Z,22.23
2023-04-17T06:21:10.135Z,22.30
2023-04-17T06:22:10.101Z,22.04
2023-04-17T06:23:10.072Z,22.22
2023-04-17T06:24:10.058Z,22.12
2023-04-17T06:25:10.091Z,22.24
2023-04-17T06:26:10.071Z,22.20
2023-04-17T06:27:10.084Z,22.29
2023-04-17T06:28:10.369Z,22.27
2023-04-17T06:30:42.655Z,22.24
2023-04-17T06:31:42.621Z,22.27
2023-04-17T06:32:42.709Z,22.30
2023-04-17T06:33:42.660Z,22.27
2023-04-17T06:34:58.151Z,22.29
2023-04-17T06:35:42.631Z,22.20
2023-04-17T06:36:42.571Z,22.38
2023-04-17T06:37:42.658Z,22.29
2023-04-17T06:38:42.666Z,22.30
2023-04-17T06:39:42.604Z,22.36
2023-04-17T06:40:42.573Z,22.38
2023-04-17T06:41:42.566Z,22.38
2023-04-17T06:42:42.541Z,22.38
2023-04-17T06:44:42.640Z,22.42
2023-04-17T06:45:42.544Z,22.46
2023-04-17T06:46:42.627Z,22.42
2023-04-17T06:47:42.632Z,22.41
2023-04-17T06:48:42.558Z,22.46
2023-04-17T06:49:42.641Z,22.46
2023-04-17T06:50:42.585Z,22.42
2023-04-17T06:51:42.534Z,22.54
2023-04-17T06:52:42.611Z,22.45
2023-04-17T06:53:42.584Z,22.52
2023-04-17T06:54:42.515Z,22.55
2023-04-17T06:55:42.566Z,22.51
2023-04-17T06:56:42.530Z,22.57
2023-04-17T06:57:42.499Z,22.48
2023-04-17T06:58:42.664Z,22.59
2023-04-17T06:59:42.545Z,22.57
2023-04-17T07:00:42.540Z,22.55
2023-04-17T07:01:42.613Z,22.66
2023-04-17T07:02:42.633Z,22.61
2023-04-17T07:03:42.788Z,22.69
2023-04-17T07:04:42.605Z,22.63
2023-04-17T07:05:44.240Z,22.57
2023-04-17T07:06:42.477Z,22.63
2023-04-17T07:07:42.537Z,22.69
2023-04-17T07:08:42.506Z,22.67
2023-04-17T07:09:42.490Z,22.71
2023-04-17T07:10:42.526Z,22.76
2023-04-17T07:11:42.451Z,22.75
2023-04-17T07:12:42.464Z,22.70
2023-04-17T07:13:42.435Z,22.85
2023-04-17T07:14:42.478Z,22.82
2023-04-17T07:15:42.596Z,22.85
2023-04-17T07:16:42.982Z,22.78
2023-04-17T07:17:42.492Z,22.84
2023-04-17T07:18:42.433Z,22.84
2023-04-17T07:19:42.485Z,22.79
2023-04-17T07:20:42.550Z,22.84
2023-04-17T07:21:42.464Z,22.78
2023-04-17T07:22:42.428Z,22.92
2023-04-17T07:23:42.470Z,22.96
2023-04-17T07:24:42.412Z,22.94
2023-04-17T07:25:42.970Z,22.96
2023-04-17T07:26:42.433Z,22.91
2023-04-17T07:27:42.415Z,23.00
2023-04-17T07:28:42.402Z,23.01
2023-04-17T07:29:42.515Z,23.01
2023-04-17T07:30:42.537Z,23.06
2023-04-17T07:31:42.484Z,23.04
2023-04-17T07:32:42.484Z,23.12
2023-04-17T07:33:42.464Z,23.12
2023-04-17T07:34:42.418Z,23.10
2023-04-17T07:35:42.522Z,23.07
2023-04-17T07:36:42.372Z,23.10
2023-04-17T07:37:42.564Z,23.12
2023-04-17T07:38:42.465Z,23.16
2023-04-17T07:39:42.419Z,23.18
2023-04-17T07:40:42.375Z,23.15
2023-04-17T07:41:42.457Z,23.28
2023-04-17T07:42:42.422Z,23.25
2023-04-17T07:43:42.405Z,23.25
2023-04-17T07:44:42.378Z,23.34
2023-04-17T07:45:42.401Z,23.26
2023-04-17T07:46:42.453Z,23.40
2023-04-17T07:47:42.469Z,23.41
2023-04-17T07:48:42.356Z,23.44
2023-04-17T07:49:42.423Z,23.34
2023-04-17T07:50:42.350Z,23.44
2023-04-17T07:51:42.369Z,23.45
2023-04-17T07:52:42.471Z,23.45
2023-04-17T07:53:42.372Z,23.53
2023-04-17T07:54:43.281Z,23.59
2023-04-17T07:55:42.346Z,23.59
2023-04-17T07:56:42.575Z,23.60
2023-04-17T07:57:42.359Z,23.60
2023-04-17T07:58:42.358Z,23.67
2023-04-17T07:59:42.372Z,23.66
2023-04-17T08:00:42.451Z,23.72
2023-04-17T08:01:42.414Z,23.72
2023-04-17T08:02:42.583Z,23.77
2023-04-17T08:03:42.564Z,23.77
2023-04-17T08:04:42.383Z,23.79
2023-04-17T08:05:42.335Z,23.84
2023-04-17T08:06:42.316Z,23.85
2023-04-17T08:07:42.363Z,23.87
2023-04-17T08:08:42.338Z,23.90
2023-04-17T08:09:44.021Z,23.90
2023-04-17T08:10:42.334Z,23.94
2023-04-17T08:11:55.694Z,23.93
2023-04-17T08:12:42.311Z,23.94
2023-04-17T08:13:42.360Z,23.99
2023-04-17T08:14:42.496Z,24.03
2023-04-17T08:15:42.307Z,24.09
2023-04-17T08:16:42.353Z,24.04
2023-04-17T08:17:42.339Z,24.07
2023-04-17T08:18:42.358Z,24.15
2023-04-17T08:19:42.318Z,24.21
2023-04-17T08:20:42.289Z,24.12
2023-04-17T08:21:42.322Z,24.21
2023-04-17T08:22:42.296Z,24.18
2023-04-17T08:23:42.453Z,24.24
2023-04-17T08:24:42.449Z,24.22
2023-04-17T08:25:42.291Z,24.26
2023-04-17T08:26:42.299Z,24.22
2023-04-17T08:27:42.281Z,24.27
2023-04-17T08:28:42.567Z,24.29
2023-04-17T08:29:42.325Z,24.26
2023-04-17T08:30:42.516Z,24.32
2023-04-17T08:31:42.277Z,24.29
2023-04-17T08:32:42.387Z,24.29
2023-04-17T08:33:42.330Z,24.36
2023-04-17T08:34:42.334Z,24.37
2023-04-17T08:35:42.426Z,24.42
2023-04-17T08:36:42.262Z,24.37
2023-04-17T08:37:42.346Z,24.39
2023-04-17T08:38:42.448Z,24.42
2023-04-17T08:39:42.299Z,24.42
2023-04-17T08:40:42.257Z,24.51
2023-04-17T08:41:42.410Z,24.52
2023-04-17T08:42:42.611Z,24.48
2023-04-17T08:43:42.251Z,24.45
2023-04-17T08:44:42.558Z,24.58
2023-04-17T08:45:42.562Z,24.46
2023-04-17T08:46:42.525Z,24.56
2023-04-17T08:48:42.264Z,24.59
2023-04-17T08:49:43.760Z,24.52
2023-04-17T08:50:42.359Z,24.58
2023-04-17T08:51:42.396Z,24.59
2023-04-17T08:52:42.411Z,24.63
2023-04-17T08:53:42.248Z,24.58
2023-04-17T08:54:42.242Z,24.74
2023-04-17T08:55:42.277Z,24.74
2023-04-17T08:56:42.274Z,24.69
2023-04-17T08:57:42.260Z,24.77
2023-04-17T08:58:42.359Z,24.70
2023-04-17T08:59:42.303Z,24.78
2023-04-17T09:00:42.269Z,24.83
2023-04-17T09:01:42.487Z,24.75
2023-04-17T09:02:42.583Z,24.75
2023-04-17T09:03:42.451Z,24.74
2023-04-17T09:04:42.633Z,24.75
2023-04-17T09:05:42.405Z,24.90
2023-04-17T09:06:42.543Z,24.93
2023-04-17T09:11:47.371Z,25.00
2023-04-17T09:12:47.360Z,25.02
2023-04-17T09:13:47.364Z,25.01
2023-04-17T09:14:50.467Z,25.07
2023-04-17T09:15:47.476Z,25.04
2023-04-17T09:16:47.500Z,25.08
2023-04-17T09:17:47.442Z,25.08
2023-04-17T09:18:47.371Z,25.09
2023-04-17T09:19:47.517Z,25.05
2023-04-17T09:20:47.539Z,25.15
2023-04-17T09:21:47.500Z,25.15
2023-04-17T09:22:48.374Z,25.19
2023-04-17T09:23:47.372Z,25.20
2023-04-17T09:24:47.427Z,25.26
2023-04-17T09:25:47.473Z,25.30
2023-04-17T09:26:48.479Z,25.32
2023-04-17T09:27:47.394Z,25.38
2023-04-17T09:28:47.390Z,25.37
2023-04-17T09:29:47.610Z,25.44
2023-04-17T09:30:47.377Z,25.39
2023-04-17T09:31:47.422Z,25.45
2023-04-17T09:32:47.375Z,25.41
2023-04-17T09:33:47.392Z,25.47
2023-04-17T09:34:48.166Z,25.57
2023-04-17T09:35:47.362Z,25.51
2023-04-17T09:36:47.398Z,25.47
2023-04-17T09:37:47.349Z,25.52
2023-04-17T09:38:47.429Z,25.59
2023-04-17T09:39:47.375Z,25.56
2023-04-17T09:40:47.403Z,25.64
2023-04-17T09:41:47.426Z,25.56
2023-04-17T09:42:47.386Z,25.66
2023-04-17T09:43:47.359Z,25.57
2023-04-17T09:44:47.471Z,25.59
2023-04-17T09:45:47.374Z,25.63
2023-04-17T09:46:47.661Z,25.57
2023-04-17T09:47:47.577Z,25.69
2023-04-17T09:48:47.371Z,25.74
2023-04-17T09:49:47.366Z,25.70
2023-04-17T09:50:47.359Z,25.70
2023-04-17T09:51:47.465Z,25.76
2023-04-17T09:52:47.348Z,25.75
2023-04-17T09:53:47.556Z,25.76
2023-04-17T09:54:47.348Z,25.79
2023-04-17T09:55:47.367Z,25.74
2023-04-17T09:57:47.388Z,25.84
2023-04-17T09:58:47.346Z,25.91
2023-04-17T09:59:47.388Z,25.89
2023-04-17T10:00:47.400Z,25.88
2023-04-17T10:01:47.403Z,25.85
2023-04-17T10:13:36.528Z,26.00
2023-04-17T10:14:36.483Z,26.00
2023-04-17T10:15:36.441Z,25.99
2023-04-17T10:16:36.528Z,26.16
2023-04-17T10:17:36.513Z,26.07
2023-04-17T10:18:36.465Z,26.11
2023-04-17T10:19:36.467Z,26.15
2023-04-17T10:20:36.466Z,26.15
2023-04-17T10:21:36.483Z,26.16
2023-04-17T10:22:36.510Z,26.16
2023-04-17T10:24:36.478Z,26.24
2023-04-17T10:25:36.448Z,26.32
2023-04-17T10:26:36.577Z,26.26
2023-04-17T10:27:37.564Z,26.26
2023-04-17T10:28:36.477Z,26.22
2023-04-17T10:29:36.529Z,26.38
2023-04-17T10:30:36.454Z,26.39
2023-04-17T10:31:36.502Z,26.39
2023-04-17T10:33:36.538Z,26.27
2023-04-17T10:34:36.478Z,26.44
2023-04-17T10:36:36.484Z,26.52
2023-04-17T10:37:36.555Z,26.52
2023-04-17T10:38:36.601Z,26.49
2023-04-17T10:39:36.508Z,26.60
2023-04-17T10:40:36.454Z,26.59
2023-04-17T10:41:36.506Z,26.56
2023-04-17T10:42:36.545Z,26.64
2023-04-17T10:43:36.550Z,26.61
2023-04-17T10:44:36.583Z,26.76
2023-04-17T10:45:36.489Z,26.72
2023-04-17T10:46:36.549Z,26.74
2023-04-17T10:47:36.496Z,26.81
2023-04-17T10:48:36.720Z,26.89
2023-04-17T10:49:36.453Z,26.86
2023-04-17T10:50:36.547Z,26.84
2023-04-17T10:51:36.507Z,26.84
2023-04-17T10:52:36.546Z,26.86
2023-04-17T10:53:36.515Z,26.93
2023-04-17T10:54:36.509Z,26.93
2023-04-17T10:55:36.484Z,26.97
2023-04-17T10:56:36.515Z,27.00
2023-04-17T10:57:36.478Z,27.01
2023-04-17T10:58:36.582Z,27.06
2023-04-17T10:59:36.595Z,27.11
2023-04-17T11:00:36.509Z,27.18
2023-04-17T11:01:36.601Z,27.15
2023-04-17T11:02:36.519Z,27.23
2023-04-17T11:03:37.128Z,27.23
2023-04-17T11:04:37.621Z,27.31
2023-04-17T11:05:36.553Z,27.31
2023-04-17T11:06:36.584Z,27.26
2023-04-17T11:07:36.484Z,27.45
2023-04-17T11:08:36.489Z,27.49
2023-04-17T11:09:36.515Z,27.43
2023-04-17T11:10:36.502Z,27.49
2023-04-17T11:11:43.969Z,27.55
2023-04-17T11:12:36.510Z,27.59
2023-04-17T11:13:36.511Z,27.64
2023-04-17T11:14:36.531Z,27.57
2023-04-17T11:15:37.552Z,27.71
2023-04-17T11:16:36.654Z,27.81
2023-04-17T11:17:36.668Z,27.89
2023-04-17T11:18:36.534Z,27.87
2023-04-17T11:19:36.637Z,27.91
2023-04-17T11:20:36.534Z,27.87
2023-04-17T11:21:36.570Z,28.03
2023-04-17T11:22:36.586Z,27.98
2023-04-17T11:23:36.516Z,28.01
2023-04-17T11:24:37.204Z,28.02
2023-04-17T11:25:36.644Z,28.11
2023-04-17T11:26:36.539Z,28.16
2023-04-17T11:27:36.554Z,28.20
2023-04-17T11:28:36.510Z,28.30
2023-04-17T11:29:36.532Z,28.30
2023-04-17T11:30:36.544Z,28.46
2023-04-17T11:31:36.596Z,28.43
2023-04-17T11:32:36.579Z,28.57
2023-04-17T11:33:36.552Z,28.60
2023-04-17T11:34:36.538Z,28.72
2023-04-17T11:35:36.576Z,28.72
2023-04-17T11:36:36.556Z,28.82
2023-04-17T11:37:37.296Z,28.95
2023-04-17T11:38:36.558Z,28.90
2023-04-17T11:39:36.556Z,28.94
2023-04-17T11:40:36.600Z,28.98
2023-04-17T11:41:36.568Z,29.08
2023-04-17T11:42:36.589Z,29.11
2023-04-17T11:43:36.592Z,29.13
2023-04-17T11:44:36.558Z,29.13
2023-04-17T11:45:37.296Z,29.17
2023-04-17T11:46:36.616Z,29.18
2023-04-17T11:47:36.607Z,29.30
2023-04-17T11:48:36.615Z,29.30
2023-04-17T11:49:36.592Z,29.33
2023-04-17T11:50:36.585Z,29.40
2023-04-17T11:51:36.633Z,29.40
2023-04-17T11:52:36.584Z,29.40
2023-04-17T11:53:36.599Z,29.47
2023-04-17T11:54:36.603Z,29.50
2023-04-17T11:55:36.598Z,29.55
2023-04-17T11:56:36.606Z,29.48
2023-04-17T11:57:36.600Z,29.57
2023-04-17T11:58:36.623Z,29.60
2023-04-17T11:59:36.609Z,29.55
2023-04-17T12:00:36.625Z,29.52
2023-04-17T12:01:36.650Z,29.52
2023-04-17T12:02:36.762Z,29.47
2023-04-17T12:03:36.981Z,29.48
2023-04-17T12:04:36.938Z,29.57
2023-04-17T12:05:36.703Z,29.52
2023-04-17T12:06:36.675Z,29.54
2023-04-17T12:07:36.672Z,29.70
2023-04-17T12:08:36.683Z,29.82
2023-04-17T12:09:36.797Z,29.89
2023-04-17T12:10:36.694Z,29.97
2023-04-17T12:11:36.720Z,29.91
2023-04-17T12:12:36.665Z,29.88
2023-04-17T12:13:36.677Z,29.88
2023-04-17T12:14:36.690Z,29.81
2023-04-17T12:15:36.680Z,29.82
2023-04-17T12:16:36.756Z,29.69
2023-04-17T12:17:36.683Z,29.61
2023-04-17T12:18:36.686Z,29.54
2023-04-17T12:19:36.694Z,29.55
2023-04-17T12:20:36.688Z,29.61
2023-04-17T12:21:36.707Z,29.51
2023-04-17T12:22:36.702Z,29.51
2023-04-17T12:23:36.690Z,29.50
2023-04-17T12:24:36.694Z,29.50
2023-04-17T12:25:36.687Z,29.38
2023-04-17T12:26:36.728Z,29.28
2023-04-17T12:27:36.696Z,29.23
2023-04-17T12:28:36.706Z,29.14
2023-04-17T12:30:36.705Z,29.39
2023-04-17T12:31:36.787Z,29.35
2023-04-17T12:32:36.826Z,29.28
2023-04-17T12:33:36.725Z,29.26
2023-04-17T12:34:36.754Z,29.51
2023-04-17T12:35:36.721Z,29.39
2023-04-17T12:36:36.739Z,29.29
2023-04-17T12:37:36.774Z,29.23
2023-04-17T12:38:36.761Z,29.13
2023-04-17T12:39:36.830Z,29.02
2023-04-17T12:40:36.733Z,29.06
2023-04-17T12:41:36.725Z,29.36
2023-04-17T12:42:48.240Z,29.54
2023-04-17T12:43:36.736Z,29.58
2023-04-17T12:44:36.745Z,29.73
2023-04-17T12:45:36.818Z,29.94
2023-04-17T12:46:36.737Z,30.21
2023-04-17T12:47:36.765Z,30.39
2023-04-17T12:48:36.744Z,30.52
2023-04-17T12:49:36.747Z,30.69
2023-04-17T12:50:36.762Z,30.86
2023-04-17T12:51:36.743Z,30.97
2023-04-17T12:52:36.758Z,31.15
2023-04-17T12:53:36.767Z,31.28
2023-04-17T12:54:36.823Z,31.34
2023-04-17T12:55:36.770Z,31.52
2023-04-17T12:56:36.787Z,31.65
2023-04-17T12:57:36.830Z,31.72
2023-04-17T12:58:36.787Z,31.90
2023-04-17T12:59:36.801Z,31.74
2023-04-17T13:00:36.793Z,31.41
2023-04-17T13:01:36.983Z,31.31
2023-04-17T13:02:36.908Z,31.00
2023-04-17T13:03:37.071Z,30.89
2023-04-17T13:04:36.916Z,31.13
2023-04-17T13:05:36.823Z,31.06
2023-04-17T13:06:36.828Z,30.75
2023-04-17T13:07:36.851Z,30.73
2023-04-17T13:08:36.880Z,30.49
2023-04-17T13:09:36.839Z,30.35
2023-04-17T13:10:36.860Z,30.28
2023-04-17T13:11:36.823Z,30.13
2023-04-17T13:12:36.854Z,30.11
2023-04-17T13:13:36.840Z,30.07
2023-04-17T13:14:36.878Z,29.98
2023-04-17T13:15:36.836Z,29.89
2023-04-17T13:16:36.952Z,29.98
2023-04-17T13:17:36.845Z,30.04
2023-04-17T13:18:36.833Z,29.77
2023-04-17T13:19:36.865Z,29.82
2023-04-17T13:20:36.852Z,29.61
2023-04-17T13:21:36.851Z,29.63
2023-04-17T13:22:36.849Z,29.88
2023-04-17T13:23:36.871Z,30.25
2023-04-17T13:24:36.897Z,30.44
2023-04-17T13:25:36.883Z,30.67
2023-04-17T13:27:36.861Z,30.81
2023-04-17T13:28:36.888Z,31.04
2023-04-17T13:29:36.879Z,31.15
2023-04-17T13:30:36.975Z,31.23
2023-04-17T13:31:36.978Z,31.12
2023-04-17T13:32:36.942Z,31.16
2023-04-17T13:33:36.877Z,31.08
2023-04-17T13:34:36.957Z,30.96
2023-04-17T13:35:36.919Z,30.85
2023-04-17T13:36:36.888Z,30.66
2023-04-17T13:37:36.919Z,30.47
2023-04-17T13:38:36.911Z,30.32
2023-04-17T13:39:36.911Z,30.14
2023-04-17T13:40:36.932Z,30.04
2023-04-17T13:41:36.939Z,29.97
2023-04-17T13:42:36.911Z,30.03
2023-04-17T13:43:36.920Z,30.16
2023-04-17T13:44:36.947Z,30.52
2023-04-17T13:45:36.948Z,30.70
2023-04-17T13:46:36.975Z,30.84
2023-04-17T13:47:36.965Z,31.00
2023-04-17T13:48:37.015Z,31.16
2023-04-17T13:49:36.922Z,31.30
2023-04-17T13:50:36.987Z,31.41
2023-04-17T13:51:36.932Z,31.47
2023-04-17T13:52:36.939Z,31.71
2023-04-17T13:53:36.938Z,31.77
2023-04-17T13:54:36.976Z,31.82
2023-04-17T13:55:36.968Z,31.95
2023-04-17T13:56:36.955Z,32.16
2023-04-17T13:57:36.991Z,32.25
2023-04-17T13:58:36.967Z,32.25
2023-04-17T13:59:36.998Z,32.30
2023-04-17T14:00:36.997Z,32.47
2023-04-17T14:01:37.016Z,32.64
2023-04-17T14:02:37.309Z,32.72
2023-04-17T14:03:39.753Z,32.50
2023-04-17T14:04:37.145Z,32.52
2023-04-17T14:06:36.996Z,32.67
2023-04-17T14:07:37.000Z,32.61
2023-04-17T14:08:37.032Z,32.42
2023-04-17T14:09:37.044Z,32.16
2023-04-17T14:10:37.022Z,32.03
2023-04-17T14:11:37.037Z,32.25
2023-04-17T14:12:37.019Z,32.31
2023-04-17T14:13:37.154Z,32.42
2023-04-17T14:14:37.069Z,32.56
2023-04-17T14:15:37.103Z,32.67
2023-04-17T14:16:37.068Z,32.69
2023-04-17T14:17:37.052Z,32.75
2023-04-17T14:18:37.052Z,32.79
2023-04-17T14:19:37.062Z,32.91
2023-04-17T14:20:37.066Z,32.90
2023-04-17T14:21:37.072Z,32.98
2023-04-17T14:22:37.075Z,32.99
2023-04-17T14:23:37.088Z,32.86
2023-04-17T14:24:37.090Z,32.74
2023-04-17T14:25:37.128Z,32.46
2023-04-17T14:26:37.100Z,32.20
2023-04-17T14:27:37.113Z,32.01
2023-04-17T14:28:37.132Z,31.81
2023-04-17T14:29:37.156Z,31.82
2023-04-17T14:30:37.128Z,31.95
2023-04-17T14:31:37.126Z,32.08
2023-04-17T14:32:37.178Z,32.16
2023-04-17T14:33:37.126Z,32.23
2023-04-17T14:34:37.140Z,32.34
2023-04-17T14:35:37.161Z,32.24
2023-04-17T14:36:37.135Z,32.43
2023-04-17T14:37:37.158Z,32.54
2023-04-17T14:38:37.150Z,32.56
2023-04-17T14:39:37.150Z,32.67
2023-04-17T14:40:37.170Z,32.72
2023-04-17T14:41:37.219Z,32.75
2023-04-17T14:42:47.470Z,32.74
2023-04-17T14:43:37.169Z,32.56
2023-04-17T14:44:37.179Z,32.43
2023-04-17T14:45:37.318Z,32.56
2023-04-17T14:46:37.278Z,32.71
2023-04-17T14:47:37.209Z,32.59
2023-04-17T14:48:48.126Z,32.50
2023-04-17T14:49:37.199Z,32.25
2023-04-17T14:50:37.213Z,32.00
2023-04-17T14:51:37.224Z,31.86
2023-04-17T14:52:37.232Z,31.58
2023-04-17T14:53:37.220Z,31.47
2023-04-17T14:54:37.253Z,31.30
2023-04-17T14:55:37.258Z,31.15
2023-04-17T14:56:37.238Z,30.93
2023-04-17T14:57:37.262Z,30.96
2023-04-17T14:58:37.261Z,30.96
2023-04-17T14:59:37.263Z,30.99
2023-04-17T15:00:37.268Z,30.99
2023-04-17T15:01:37.309Z,30.82
2023-04-17T15:02:37.387Z,30.62
2023-04-17T15:03:37.493Z,30.40
2023-04-17T15:04:37.316Z,30.22
2023-04-17T15:05:38.021Z,30.16
2023-04-17T15:06:37.285Z,30.13
2023-04-17T15:07:37.269Z,30.18
2023-04-17T15:08:37.274Z,30.22
2023-04-17T15:09:37.275Z,30.34
2023-04-17T15:10:47.850Z,30.37
2023-04-17T15:11:37.274Z,30.21
2023-04-17T15:12:37.270Z,30.13
2023-04-17T15:13:37.274Z,29.97
2023-04-17T15:14:37.277Z,29.85
2023-04-17T15:15:37.315Z,29.76
2023-04-17T15:16:37.322Z,29.58
2023-04-17T15:17:37.448Z,29.52
2023-04-17T15:18:37.314Z,29.55
2023-04-17T15:19:37.296Z,29.57
2023-04-17T15:20:37.306Z,29.48
2023-04-17T15:21:37.298Z,29.39
2023-04-17T15:22:37.339Z,29.40
2023-04-17T15:23:37.319Z,29.15
2023-04-17T15:24:37.322Z,29.08
2023-04-17T15:25:37.318Z,28.86
2023-04-17T15:26:37.313Z,28.80
2023-04-17T15:27:37.355Z,28.61
2023-04-17T15:28:37.305Z,28.45
2023-04-17T15:29:37.308Z,28.27
2023-04-17T15:30:37.315Z,28.18
2023-04-17T15:31:37.362Z,28.05
2023-04-17T15:32:37.407Z,27.91
2023-04-17T15:33:37.368Z,27.80
2023-04-17T15:34:37.382Z,27.68
2023-04-17T15:35:37.383Z,27.59
2023-04-17T15:36:37.403Z,27.49
2023-04-17T15:37:37.327Z,27.36
2023-04-17T15:38:37.341Z,27.24
2023-04-17T15:39:37.352Z,27.16
2023-04-17T15:40:37.400Z,26.97
2023-04-17T15:41:37.382Z,26.91
2023-04-17T15:42:37.366Z,26.81
2023-04-17T15:43:37.336Z,26.79
2023-04-17T15:44:37.349Z,26.67
2023-04-17T15:45:37.361Z,26.60
2023-04-17T15:46:37.423Z,26.50
2023-04-17T15:47:37.363Z,26.38
2023-04-17T15:48:37.343Z,26.41
2023-04-17T15:49:37.448Z,26.22
2023-04-17T15:50:37.349Z,26.27
2023-04-17T15:51:39.523Z,26.15
2023-04-17T15:52:37.326Z,26.15
2023-04-17T15:53:37.337Z,25.97
2023-04-17T15:54:37.342Z,26.03
2023-04-17T15:55:37.382Z,25.94
2023-04-17T15:56:37.325Z,25.85
2023-04-17T15:57:37.406Z,25.84
2023-04-17T15:58:37.372Z,25.76
2023-04-17T15:59:37.317Z,25.70
2023-04-17T16:00:37.345Z,25.74
2023-04-17T16:14:21.496Z,25.12
2023-04-17T16:15:19.755Z,25.20
2023-04-17T16:16:19.777Z,25.08
2023-04-17T16:17:19.795Z,25.07
2023-04-17T16:18:19.764Z,25.02
2023-04-17T16:19:19.778Z,24.94
2023-04-17T16:20:19.753Z,25.00
2023-04-17T16:21:19.768Z,24.90
2023-04-17T16:22:19.753Z,24.78
2023-04-17T16:23:19.735Z,24.74
2023-04-17T16:24:19.754Z,24.75
2023-04-17T16:25:20.850Z,24.75
2023-04-17T16:26:19.738Z,24.63
2023-04-17T16:27:19.755Z,24.61
2023-04-17T16:28:19.725Z,24.52
2023-04-17T16:29:19.748Z,24.45
2023-04-17T16:30:19.832Z,24.55
2023-04-17T16:31:19.788Z,24.49
2023-04-17T16:32:19.784Z,24.48
2023-04-17T16:33:19.708Z,24.44
2023-04-17T16:34:19.725Z,24.33
2023-04-17T16:35:19.727Z,24.30
2023-04-17T16:36:19.715Z,24.26
2023-04-17T16:37:19.723Z,24.26
2023-04-17T16:38:19.716Z,24.24
2023-04-17T16:39:19.714Z,24.17
2023-04-17T16:40:19.732Z,24.12
2023-04-17T16:41:19.717Z,24.15
2023-04-17T16:42:19.702Z,24.14
2023-04-17T16:43:19.743Z,24.07
2023-04-17T16:44:19.692Z,24.07
2023-04-17T16:45:19.738Z,24.00
2023-04-17T16:46:26.204Z,23.99
2023-04-17T16:47:19.756Z,23.92
2023-04-17T16:48:19.786Z,23.99
2023-04-17T16:49:19.700Z,23.99
2023-04-17T16:50:19.705Z,23.93
2023-04-17T16:51:19.709Z,23.78
2023-04-17T16:52:19.680Z,23.82
2023-04-17T16:53:19.723Z,23.78
2023-04-17T16:54:19.689Z,23.78
2023-04-17T16:55:19.726Z,23.77
2023-04-17T16:56:19.709Z,23.64
2023-04-17T16:57:19.688Z,23.67
2023-04-17T16:58:19.671Z,23.70
2023-04-17T16:59:19.671Z,23.70
2023-04-17T17:00:19.679Z,23.62
2023-04-17T17:01:19.697Z,23.56
2023-04-17T17:02:19.701Z,23.53
2023-04-17T17:03:19.704Z,23.53
2023-04-17T17:04:19.720Z,23.57
2023-04-17T17:05:19.708Z,23.45
2023-04-17T17:06:19.657Z,23.44
2023-04-17T17:07:19.670Z,23.41
2023-04-17T17:08:19.656Z,23.37
2023-04-17T17:09:19.674Z,23.38
2023-04-17T17:10:19.645Z,23.41
2023-04-17T17:11:19.669Z,23.40
2023-04-17T17:12:19.642Z,23.42
2023-04-17T17:13:19.652Z,23.35
2023-04-17T17:14:19.628Z,23.26
2023-04-17T17:15:21.224Z,23.26
2023-04-17T17:16:19.680Z,23.26
2023-04-17T17:17:19.639Z,23.26
2023-04-17T17:18:19.674Z,23.25
2023-04-17T17:19:19.661Z,23.15
2023-04-17T17:20:19.647Z,23.21
2023-04-17T17:21:19.642Z,23.14
2023-04-17T17:22:19.611Z,23.12
2023-04-17T17:23:19.615Z,23.15
2023-04-17T17:24:19.619Z,23.07
2023-04-17T17:25:19.602Z,23.01
2023-04-17T17:26:19.618Z,23.00
2023-04-17T17:27:19.604Z,23.12
2023-04-17T17:28:19.617Z,23.14
2023-04-17T17:29:19.633Z,23.07